createdAt,value
2023-03-05T00:01:22.899Z,21.20
2023-03-05T00:03:30.839Z,19.95
2023-03-05T00:05:38.836Z,21.85
2023-03-05T00:07:47.635Z,21.85
2023-03-05T00:09:55.749Z,20.92
2023-03-05T00:12:03.837Z,20.55
2023-03-05T00:14:15.326Z,20.73
2023-03-05T00:16:27.091Z,22.08
2023-03-05T00:18:35.470Z,22.17
2023-03-05T00:20:43.409Z,21.08
2023-03-05T00:22:51.464Z,21.38
2023-03-05T00:24:59.653Z,21.40
2023-03-05T00:27:07.660Z,21.23
2023-03-05T00:29:21.930Z,20.98
2023-03-05T00:31:34.133Z,21.92
2023-03-05T00:33:42.152Z,22.27
2023-03-05T00:35:50.160Z,21.35
2023-03-05T00:37:58.061Z,21.60
2023-03-05T00:40:06.760Z,20.75
2023-03-05T00:42:14.712Z,22.70
2023-03-05T00:44:25.388Z,22.75
2023-03-05T00:46:33.448Z,23.08
2023-03-05T00:48:41.671Z,23.02
2023-03-05T00:50:49.635Z,20.45
2023-03-05T00:52:58.054Z,21.80
2023-03-05T00:55:07.194Z,22.00
2023-03-05T00:57:14.975Z,22.70
2023-03-05T00:59:25.716Z,21.27
2023-03-05T01:01:33.576Z,20.75
2023-03-05T01:03:43.823Z,22.00
2023-03-05T01:05:51.745Z,22.67
2023-03-05T01:08:00.956Z,23.77
2023-03-05T01:10:10.500Z,21.15
2023-03-05T01:12:18.530Z,21.55
2023-03-05T01:14:29.169Z,21.63
2023-03-05T01:16:37.914Z,21.02
2023-03-05T01:18:46.798Z,20.45
2023-03-05T01:20:54.642Z,21.75
2023-03-05T01:23:02.649Z,21.40
2023-03-05T01:25:11.761Z,21.65
2023-03-05T01:27:19.876Z,20.83
2023-03-05T01:29:30.554Z,22.38
2023-03-05T01:31:38.403Z,21.77
2023-03-05T01:33:46.485Z,22.45
2023-03-05T01:35:54.723Z,21.10
2023-03-05T01:38:02.680Z,20.58
2023-03-05T01:40:12.578Z,22.20
2023-03-05T01:42:21.282Z,22.75
2023-03-05T01:44:33.744Z,22.20
2023-03-05T01:46:41.905Z,21.15
2023-03-05T01:48:54.359Z,21.77
2023-03-05T01:51:02.236Z,21.00
2023-03-05T01:53:10.621Z,21.35
2023-03-05T01:55:22.770Z,20.52
2023-03-05T01:57:35.908Z,22.70
2023-03-05T01:59:50.725Z,20.77
2023-03-05T02:02:01.947Z,20.50
2023-03-05T02:04:12.760Z,22.42
2023-03-05T02:06:20.768Z,22.13
2023-03-05T02:08:28.555Z,22.60
2023-03-05T02:10:39.882Z,21.85
2023-03-05T02:12:47.831Z,21.52
2023-03-05T02:14:59.693Z,23.33
2023-03-05T02:17:08.209Z,24.00
2023-03-05T02:19:16.183Z,22.35
2023-03-05T02:21:40.779Z,22.50
2023-03-05T02:23:48.779Z,21.45
2023-03-05T02:25:57.047Z,22.95
2023-03-05T02:28:11.046Z,20.50
2023-03-05T02:30:19.410Z,21.77
2023-03-05T02:32:27.643Z,21.40
2023-03-05T02:34:35.691Z,22.60
2023-03-05T02:36:46.891Z,20.52
2023-03-05T02:38:57.218Z,21.83
2023-03-05T02:41:05.106Z,22.10
2023-03-05T02:43:13.960Z,21.05
2023-03-05T02:45:22.168Z,23.20
2023-03-05T02:47:30.391Z,24.33
2023-03-05T02:49:38.181Z,21.48
2023-03-05T02:51:48.718Z,21.10
2023-03-05T02:53:56.693Z,21.63
2023-03-05T02:56:07.707Z,23.08
2023-03-05T02:58:16.856Z,22.15
2023-03-05T03:00:26.443Z,23.00
2023-03-05T03:02:34.568Z,21.52
2023-03-05T03:04:42.437Z,23.42
2023-03-05T03:06:52.834Z,23.13
2023-03-05T03:09:00.705Z,23.15
2023-03-05T03:11:11.291Z,21.80
2023-03-05T03:13:19.186Z,23.52
2023-03-05T03:15:27.090Z,22.00
2023-03-05T03:17:34.989Z,22.85
2023-03-05T03:19:44.433Z,21.92
2023-03-05T03:21:55.328Z,23.58
2023-03-05T03:24:03.554Z,23.30
2023-03-05T03:26:11.409Z,23.50
2023-03-05T03:28:19.634Z,23.05
2023-03-05T03:30:27.529Z,24.25
2023-03-05T03:32:36.945Z,23.38
2023-03-05T03:34:44.891Z,22.55
2023-03-05T03:36:55.954Z,22.05
2023-03-05T03:39:03.860Z,22.95
2023-03-05T03:41:12.319Z,21.48
2023-03-05T03:43:20.353Z,23.65
2023-03-05T03:45:28.789Z,24.20
2023-03-05T03:47:36.720Z,24.08
2023-03-05T03:49:44.639Z,23.45
2023-03-05T03:51:58.291Z,23.45
2023-03-05T03:54:06.579Z,23.38
2023-03-05T03:56:14.535Z,23.33
2023-03-05T03:58:22.397Z,23.67
2023-03-05T04:00:30.197Z,21.90
2023-03-05T04:02:38.087Z,22.88
2023-03-05T04:04:46.097Z,24.45
2023-03-05T04:06:56.904Z,22.90
2023-03-05T04:09:04.697Z,22.52
2023-03-05T04:11:12.720Z,23.77
2023-03-05T04:13:20.521Z,23.00
2023-03-05T04:15:28.427Z,23.25
2023-03-05T04:17:36.660Z,24.08
2023-03-05T04:19:45.820Z,22.40
2023-03-05T04:21:56.631Z,23.40
2023-03-05T04:24:04.660Z,21.85
2023-03-05T04:26:12.664Z,23.10
2023-03-05T04:28:20.626Z,21.58
2023-03-05T04:30:28.496Z,23.85
2023-03-05T04:32:36.557Z,22.77
2023-03-05T04:34:44.729Z,21.67
2023-03-05T04:36:52.838Z,23.20
2023-03-05T04:39:03.864Z,22.17
2023-03-05T04:41:11.866Z,22.90
2023-03-05T04:43:19.814Z,21.90
2023-03-05T04:45:27.588Z,23.65
2023-03-05T04:47:35.475Z,20.88
2023-03-05T04:49:43.710Z,22.40
2023-03-05T04:51:51.989Z,22.38
2023-03-05T04:54:00.085Z,23.23
2023-03-05T04:56:11.249Z,22.15
2023-03-05T04:58:19.659Z,22.27
2023-03-05T05:00:28.083Z,20.10
2023-03-05T05:02:36.360Z,21.15
2023-03-05T05:04:45.281Z,22.52
2023-03-05T05:06:53.204Z,21.20
2023-03-05T05:09:01.056Z,21.55
2023-03-05T05:11:15.436Z,22.08
2023-03-05T05:13:23.493Z,20.90
2023-03-05T05:15:32.410Z,23.20
2023-03-05T05:17:40.301Z,18.38
2023-03-05T05:19:47.969Z,21.92
2023-03-05T05:21:55.749Z,21.83
2023-03-05T05:24:03.608Z,21.42
2023-03-05T05:26:15.465Z,21.02
2023-03-05T05:28:23.578Z,20.17
2023-03-05T05:30:31.456Z,21.23
2023-03-05T05:32:39.398Z,23.70
2023-03-05T05:34:47.365Z,20.75
2023-03-05T05:36:56.593Z,23.20
2023-03-05T05:39:04.631Z,21.35
2023-03-05T05:41:17.038Z,22.25
2023-03-05T05:43:25.066Z,20.58
2023-03-05T05:45:33.351Z,21.10
2023-03-05T05:47:41.282Z,21.30
2023-03-05T05:49:49.318Z,21.05
2023-03-05T05:51:58.063Z,20.92
2023-03-05T05:54:06.256Z,22.23
2023-03-05T05:56:17.410Z,21.88
2023-03-05T05:58:25.244Z,24.23
2023-03-05T06:00:33.110Z,20.38
2023-03-05T06:02:41.787Z,20.80
2023-03-05T06:04:49.672Z,19.75
2023-03-05T06:06:57.868Z,21.35
2023-03-05T06:09:06.329Z,21.65
2023-03-05T06:11:19.345Z,21.60
2023-03-05T06:13:30.858Z,20.88
2023-03-05T06:15:38.654Z,21.08
2023-03-05T06:17:47.934Z,21.45
2023-03-05T06:19:58.450Z,22.08
2023-03-05T06:22:06.237Z,21.98
2023-03-05T06:24:14.243Z,20.75
2023-03-05T06:26:31.082Z,22.35
2023-03-05T06:28:38.976Z,19.02
2023-03-05T06:30:47.072Z,21.73
2023-03-05T06:32:54.958Z,20.75
2023-03-05T06:35:03.048Z,22.17
2023-03-05T06:37:10.877Z,21.58
2023-03-05T06:39:18.784Z,21.75
2023-03-05T06:41:31.519Z,21.77
2023-03-05T06:43:41.084Z,21.65
2023-03-05T06:45:49.119Z,22.05
2023-03-05T06:47:56.993Z,21.60
2023-03-05T06:50:04.857Z,22.20
2023-03-05T06:52:13.770Z,21.55
2023-03-05T06:54:21.628Z,22.73
2023-03-05T06:56:32.139Z,21.45
2023-03-05T06:58:40.074Z,20.27
2023-03-05T07:00:48.445Z,21.77
2023-03-05T07:02:56.617Z,22.70
2023-03-05T07:05:04.567Z,22.40
2023-03-05T07:07:12.437Z,21.27
2023-03-05T07:09:20.386Z,22.75
2023-03-05T07:11:28.240Z,21.75
2023-03-05T07:13:38.700Z,23.33
2023-03-05T07:15:46.582Z,21.35
2023-03-05T07:17:54.490Z,20.73
2023-03-05T07:20:02.492Z,21.83
2023-03-05T07:22:10.578Z,21.42
2023-03-05T07:24:18.326Z,19.48
2023-03-05T07:26:26.933Z,22.23
2023-03-05T07:28:35.527Z,21.80
2023-03-05T07:30:46.345Z,19.38
2023-03-05T07:32:54.243Z,22.20
2023-03-05T07:35:02.425Z,20.08
2023-03-05T07:37:11.043Z,21.88
2023-03-05T07:39:19.217Z,22.30
2023-03-05T07:41:27.392Z,22.45
2023-03-05T07:43:35.455Z,22.27
2023-03-05T07:45:48.306Z,21.50
2023-03-05T07:47:56.337Z,21.98
2023-03-05T07:50:04.927Z,21.75
2023-03-05T07:52:12.866Z,21.15
2023-03-05T07:54:20.622Z,21.48
2023-03-05T07:56:32.219Z,21.45
2023-03-05T07:58:40.243Z,21.33
2023-03-05T08:00:50.797Z,22.30
2023-03-05T08:02:58.582Z,23.27
2023-03-05T08:05:06.939Z,22.40
2023-03-05T08:07:18.007Z,23.83
2023-03-05T08:09:26.215Z,23.50
2023-03-05T08:11:35.679Z,23.70
2023-03-05T08:13:44.638Z,22.75
2023-03-05T08:15:55.153Z,22.33
2023-03-05T08:18:03.499Z,22.38
2023-03-05T08:20:13.367Z,21.45
2023-03-05T08:22:21.276Z,22.77
2023-03-05T08:24:29.927Z,22.90
2023-03-05T08:26:40.456Z,23.88
2023-03-05T08:28:48.366Z,24.15
2023-03-05T08:30:59.001Z,22.58
2023-03-05T08:33:07.194Z,23.15
2023-03-05T08:35:15.504Z,22.08
2023-03-05T08:37:23.393Z,22.65
2023-03-05T08:39:32.004Z,23.05
2023-03-05T08:41:40.214Z,21.02
2023-03-05T08:43:48.368Z,22.98
2023-03-05T08:45:59.030Z,21.58
2023-03-05T08:48:07.331Z,21.33
2023-03-05T08:50:15.591Z,22.35
2023-03-05T08:52:23.418Z,21.33
2023-03-05T08:54:31.230Z,22.35
2023-03-05T08:56:39.698Z,21.10
2023-03-05T08:58:49.156Z,20.42
2023-03-05T09:01:00.219Z,21.45
2023-03-05T09:03:08.160Z,20.08
2023-03-05T09:05:16.557Z,20.80
2023-03-05T09:07:24.954Z,22.33
2023-03-05T09:09:33.096Z,20.58
2023-03-05T09:11:41.175Z,19.15
2023-03-05T09:13:49.686Z,18.58
2023-03-05T09:16:02.589Z,18.35
2023-03-05T09:18:10.990Z,19.13
2023-03-05T09:20:19.818Z,20.60
2023-03-05T09:22:27.760Z,18.65
2023-03-05T09:24:35.699Z,19.13
2023-03-05T09:26:44.312Z,18.95
2023-03-05T09:28:52.236Z,18.58
2023-03-05T09:31:05.043Z,20.50
2023-03-05T09:33:14.899Z,16.58
2023-03-05T09:35:23.074Z,17.85
2023-03-05T09:37:31.277Z,16.40
2023-03-05T09:39:40.010Z,18.25
2023-03-05T09:42:18.607Z,16.38
2023-03-05T09:44:36.791Z,15.95
2023-03-05T09:46:55.153Z,16.80
2023-03-05T09:49:10.703Z,17.48
2023-03-05T09:51:25.160Z,16.40
2023-03-05T09:53:40.410Z,17.15
2023-03-05T09:55:50.144Z,15.63
2023-03-05T09:58:06.467Z,16.45
2023-03-05T10:00:31.847Z,16.10
2023-03-05T10:02:51.358Z,16.73
2023-03-05T10:05:06.912Z,15.07
2023-03-05T10:07:19.924Z,16.40
2023-03-05T10:09:44.248Z,16.05
2023-03-05T10:11:57.815Z,16.95
2023-03-05T10:14:06.950Z,16.95
2023-03-05T10:16:41.412Z,16.65
2023-03-05T10:19:01.038Z,16.60
2023-03-05T10:21:13.471Z,15.32
2023-03-05T10:23:33.446Z,16.83
2023-03-05T10:25:56.269Z,17.38
2023-03-05T10:28:09.311Z,24.88
2023-03-05T10:30:33.701Z,17.00
2023-03-05T10:32:52.972Z,15.80
2023-03-05T10:35:26.724Z,16.90
2023-03-05T10:38:00.855Z,15.80
2023-03-05T10:40:21.914Z,15.98
2023-03-05T10:42:37.321Z,16.75
2023-03-05T10:44:49.883Z,16.58
2023-03-05T10:47:01.595Z,16.70
2023-03-05T10:49:21.646Z,16.48
2023-03-05T10:51:38.524Z,15.18
2023-03-05T10:53:55.360Z,16.42
2023-03-05T10:56:05.014Z,16.15
2023-03-05T10:58:15.389Z,15.40
2023-03-05T11:00:25.941Z,15.65
2023-03-05T11:02:34.148Z,15.60
2023-03-05T11:04:43.793Z,15.07
2023-03-05T11:06:54.424Z,14.77
2023-03-05T11:09:32.506Z,16.00
2023-03-05T11:11:40.676Z,15.43
2023-03-05T11:14:00.706Z,19.20
2023-03-05T11:16:16.632Z,17.15
2023-03-05T11:18:24.636Z,15.63
2023-03-05T11:20:37.139Z,15.90
2023-03-05T11:23:05.676Z,14.75
2023-03-05T11:25:22.940Z,14.68
2023-03-05T11:27:37.536Z,15.98
2023-03-05T11:29:51.790Z,14.55
2023-03-05T11:32:17.886Z,14.25
2023-03-05T11:34:35.482Z,15.77
2023-03-05T11:36:45.626Z,16.63
2023-03-05T11:38:59.887Z,14.48
2023-03-05T11:41:08.028Z,16.15
2023-03-05T11:43:19.328Z,15.30
2023-03-05T11:45:29.253Z,15.10
2023-03-05T11:47:42.669Z,16.45
2023-03-05T11:49:53.884Z,14.88
2023-03-05T11:52:10.840Z,15.85
2023-03-05T11:54:26.735Z,15.68
2023-03-05T11:56:39.690Z,17.60
2023-03-05T11:58:53.364Z,15.10
2023-03-05T12:01:03.693Z,16.05
2023-03-05T12:03:17.106Z,16.15
2023-03-05T12:05:25.506Z,16.30
2023-03-05T12:07:38.591Z,16.33
2023-03-05T12:09:52.155Z,15.85
2023-03-05T12:12:09.939Z,16.10
2023-03-05T12:14:23.892Z,16.70
2023-03-05T12:16:37.174Z,15.07
2023-03-05T12:18:56.288Z,16.17
2023-03-05T12:21:10.320Z,14.85
2023-03-05T12:23:22.405Z,15.43
2023-03-05T12:25:37.212Z,15.07
2023-03-05T12:27:45.162Z,15.43
2023-03-05T12:29:57.341Z,15.50
2023-03-05T12:32:06.809Z,15.70
2023-03-05T12:34:59.473Z,14.00
2023-03-05T12:37:07.972Z,16.00
2023-03-05T12:39:54.379Z,14.60
2023-03-05T12:42:40.066Z,16.63
2023-03-05T12:44:47.910Z,16.65
2023-03-05T12:47:23.803Z,14.75
2023-03-05T12:49:32.681Z,15.90
2023-03-05T12:51:43.541Z,14.68
2023-03-05T12:53:54.301Z,13.48
2023-03-05T12:56:12.640Z,15.48
2023-03-05T12:58:36.907Z,16.30
2023-03-05T13:00:49.458Z,15.60
2023-03-05T13:03:01.224Z,16.50
2023-03-05T13:05:22.617Z,14.68
2023-03-05T13:07:30.634Z,13.32
2023-03-05T13:09:38.526Z,14.20
2023-03-05T13:11:49.428Z,13.30
2023-03-05T13:14:01.563Z,14.43
2023-03-05T13:16:21.070Z,15.48
2023-03-05T13:18:30.870Z,13.80
2023-03-05T13:20:40.950Z,14.75
2023-03-05T13:22:49.233Z,12.93
2023-03-05T13:25:21.943Z,13.05
2023-03-05T13:27:33.568Z,13.90
2023-03-05T13:29:55.185Z,14.63
2023-03-05T13:32:04.649Z,12.90
2023-03-05T13:34:18.882Z,13.77
2023-03-05T13:36:29.337Z,16.40
2023-03-05T13:38:42.001Z,16.20
2023-03-05T13:41:04.305Z,13.90
2023-03-05T13:43:14.613Z,14.30
2023-03-05T13:45:30.966Z,15.10
2023-03-05T13:47:39.090Z,14.13
2023-03-05T13:49:47.605Z,15.80
2023-03-05T13:51:57.680Z,15.05
2023-03-05T13:54:06.892Z,16.08
2023-03-05T13:56:18.916Z,13.82
2023-03-05T13:58:47.673Z,14.30
2023-03-05T14:01:08.758Z,15.13
2023-03-05T14:03:25.140Z,14.15
2023-03-05T14:05:34.210Z,13.50
2023-03-05T14:07:44.689Z,14.15
2023-03-05T14:09:53.919Z,12.90
2023-03-05T14:12:05.878Z,13.40
2023-03-05T14:14:21.119Z,14.02
2023-03-05T14:16:34.707Z,14.07
2023-03-05T14:18:55.019Z,14.40
2023-03-05T14:21:06.505Z,12.77
2023-03-05T14:23:36.368Z,11.93
2023-03-05T14:25:45.631Z,13.70
2023-03-05T14:27:53.644Z,13.50
2023-03-05T14:30:01.936Z,12.30
2023-03-05T14:32:26.310Z,12.30
2023-03-05T14:34:38.009Z,11.80
2023-03-05T14:36:50.592Z,13.63
2023-03-05T14:38:59.944Z,11.43
2023-03-05T14:41:23.076Z,11.80
2023-03-05T14:43:30.907Z,11.68
2023-03-05T14:45:43.682Z,12.50
2023-03-05T14:47:58.653Z,11.18
2023-03-05T14:50:08.930Z,12.65
2023-03-05T14:52:19.777Z,12.30
2023-03-05T14:54:29.077Z,13.25
2023-03-05T14:56:37.331Z,11.77
2023-03-05T14:58:45.247Z,12.30
2023-03-05T15:00:53.141Z,12.75
2023-03-05T15:03:04.002Z,12.93
2023-03-05T15:05:12.266Z,13.00
2023-03-05T15:07:23.633Z,14.07
2023-03-05T15:09:32.741Z,13.38
2023-03-05T15:11:40.557Z,13.82
2023-03-05T15:13:50.103Z,12.45
2023-03-05T15:15:58.275Z,14.25
2023-03-05T15:18:11.547Z,14.35
2023-03-05T15:20:22.422Z,12.73
2023-03-05T15:22:30.512Z,14.43
2023-03-05T15:24:38.623Z,12.75
2023-03-05T15:26:48.654Z,13.55
2023-03-05T15:31:25.930Z,14.55
2023-03-05T15:33:37.041Z,14.18
2023-03-05T15:35:45.088Z,14.05
2023-03-05T15:37:52.951Z,14.10
2023-03-05T15:40:00.769Z,15.05
2023-03-05T15:42:09.145Z,14.15
2023-03-05T15:44:17.134Z,13.27
2023-03-05T15:46:25.120Z,13.75
2023-03-05T15:48:37.046Z,13.90
2023-03-05T15:50:46.311Z,14.27
2023-03-05T15:52:55.007Z,13.73
2023-03-05T15:55:03.975Z,15.20
2023-03-05T15:57:13.650Z,14.10
2023-03-05T15:59:21.836Z,14.13
2023-03-05T16:01:29.983Z,14.60
2023-03-05T16:03:40.935Z,15.20
2023-03-05T16:05:48.824Z,15.65
2023-03-05T16:07:57.756Z,14.35
2023-03-05T16:10:06.418Z,14.85
2023-03-05T16:12:19.186Z,16.77
2023-03-05T16:14:30.475Z,14.43
2023-03-05T16:16:39.693Z,14.23
2023-03-05T16:18:51.053Z,13.65
2023-03-05T16:20:59.160Z,15.32
2023-03-05T16:23:07.168Z,14.32
2023-03-05T16:25:15.572Z,12.73
2023-03-05T16:27:23.412Z,12.93
2023-03-05T16:29:32.560Z,13.10
2023-03-05T16:31:43.305Z,13.50
2023-03-05T16:33:53.941Z,13.65
2023-03-05T16:36:24.470Z,11.25
2023-03-05T16:38:32.734Z,12.82
2023-03-05T16:41:09.219Z,12.25
2023-03-05T16:43:10.589Z,12.55
2023-03-05T16:45:18.693Z,12.07
2023-03-05T16:47:27.640Z,11.80
2023-03-05T16:49:38.406Z,12.32
2023-03-05T16:51:46.712Z,12.88
2023-03-05T16:53:55.701Z,11.95
2023-03-05T16:56:06.295Z,11.98
2023-03-05T16:58:14.247Z,12.27
2023-03-05T17:00:24.864Z,13.60
2023-03-05T17:02:32.837Z,13.52
2023-03-05T17:04:43.357Z,11.95
2023-03-05T17:06:53.653Z,12.45
2023-03-05T17:09:01.664Z,12.35
2023-03-05T17:11:09.926Z,9.85
2023-03-05T17:13:18.008Z,11.57
2023-03-05T17:15:26.238Z,12.10
2023-03-05T17:17:34.369Z,12.23
2023-03-05T17:19:44.942Z,11.75
2023-03-05T17:21:52.870Z,11.98
2023-03-05T17:24:00.902Z,12.40
2023-03-05T17:26:10.392Z,11.38
2023-03-05T17:28:18.505Z,12.07
2023-03-05T17:30:28.341Z,13.95
2023-03-05T17:32:38.400Z,17.08
2023-03-05T17:34:49.250Z,14.93
2023-03-05T17:36:57.176Z,13.30
2023-03-05T17:39:06.282Z,12.05
2023-03-05T17:41:15.346Z,10.90
2023-03-05T17:43:23.611Z,11.55
2023-03-05T17:45:31.974Z,11.82
2023-03-05T17:47:40.590Z,11.20
2023-03-05T17:49:51.504Z,10.60
2023-03-05T17:51:59.559Z,11.57
2023-03-05T17:54:07.787Z,10.30
2023-03-05T17:56:17.482Z,11.23
2023-03-05T17:58:25.738Z,10.57
2023-03-05T18:00:34.681Z,10.70
2023-03-05T18:02:42.935Z,10.88
2023-03-05T18:04:54.367Z,11.45
2023-03-05T18:07:02.605Z,10.05
2023-03-05T18:09:10.662Z,10.60
2023-03-05T18:11:19.528Z,10.23
2023-03-05T18:13:27.394Z,11.75
2023-03-05T18:15:36.227Z,11.13
2023-03-05T18:17:44.540Z,10.65
2023-03-05T18:19:56.012Z,11.40
2023-03-05T18:22:04.148Z,9.80
2023-03-05T18:24:12.749Z,12.20
2023-03-05T18:26:20.879Z,12.38
2023-03-05T18:28:29.015Z,13.63
2023-03-05T18:30:37.778Z,12.80
2023-03-05T18:32:47.915Z,11.60
2023-03-05T18:34:59.097Z,11.60
2023-03-05T18:37:07.263Z,12.40
2023-03-05T18:39:16.638Z,10.77
2023-03-05T18:41:28.123Z,11.77
2023-03-05T18:43:36.752Z,11.80
2023-03-05T18:45:46.404Z,11.88
2023-03-05T18:47:56.800Z,12.45
2023-03-05T18:50:08.788Z,12.43
2023-03-05T18:52:17.116Z,12.00
2023-03-05T18:54:25.573Z,12.80
2023-03-05T18:56:34.030Z,12.93
2023-03-05T18:58:43.337Z,14.55
2023-03-05T19:00:52.275Z,14.05
2023-03-05T19:03:00.595Z,13.48
2023-03-05T19:05:12.604Z,13.00
2023-03-05T19:07:20.841Z,15.48
2023-03-05T19:09:47.869Z,15.48
2023-03-05T19:11:56.338Z,15.27
2023-03-05T19:14:04.480Z,16.65
2023-03-05T19:16:14.566Z,19.65
2023-03-05T19:18:23.820Z,17.40
2023-03-05T19:20:34.931Z,13.95
2023-03-05T19:22:44.774Z,15.15
2023-03-05T19:25:07.903Z,15.95
2023-03-05T19:27:20.764Z,16.58
2023-03-05T19:29:33.119Z,16.40
2023-03-05T19:31:41.855Z,15.40
2023-03-05T19:33:51.814Z,17.55
2023-03-05T19:36:02.594Z,13.13
2023-03-05T19:38:10.609Z,15.05
2023-03-05T19:40:18.644Z,14.07
2023-03-05T19:42:27.404Z,13.73
2023-03-05T19:44:35.988Z,12.60
2023-03-05T19:46:44.487Z,13.00
2023-03-05T19:48:52.835Z,14.30
2023-03-05T19:51:14.635Z,13.65
2023-03-05T19:53:25.322Z,13.90
2023-03-05T19:55:35.705Z,13.15
2023-03-05T19:57:43.969Z,13.77
2023-03-05T19:59:59.074Z,12.88
2023-03-05T20:02:08.337Z,12.25
2023-03-05T20:04:18.045Z,13.88
2023-03-05T20:06:31.055Z,13.52
2023-03-05T20:08:39.383Z,14.27
2023-03-05T20:10:47.417Z,13.93
2023-03-05T20:12:55.616Z,15.07
2023-03-05T20:15:04.239Z,15.18
2023-03-05T20:17:12.101Z,14.27
2023-03-05T20:19:22.071Z,14.45
2023-03-05T20:21:39.134Z,15.73
2023-03-05T20:23:47.129Z,15.88
2023-03-05T20:25:57.611Z,15.20
2023-03-05T20:28:05.609Z,14.60
2023-03-05T20:30:18.040Z,15.50
2023-03-05T20:32:26.082Z,17.02
2023-03-05T20:34:34.070Z,15.30
2023-03-05T20:36:48.063Z,15.88
2023-03-05T20:38:55.941Z,14.70
2023-03-05T20:41:06.397Z,16.65
2023-03-05T20:43:18.806Z,17.27
2023-03-05T20:45:27.708Z,18.15
2023-03-05T20:47:40.702Z,17.38
2023-03-05T20:49:48.553Z,18.77
2023-03-05T20:51:59.305Z,19.95
2023-03-05T20:54:09.777Z,19.40
2023-03-05T20:56:18.050Z,20.17
2023-03-05T20:58:25.924Z,19.27
2023-03-05T21:00:34.347Z,20.73
2023-03-05T21:02:45.771Z,19.55
2023-03-05T21:04:53.536Z,21.42
2023-03-05T21:07:04.205Z,20.85
2023-03-05T21:09:12.074Z,21.58
2023-03-05T21:11:20.294Z,19.58
2023-03-05T21:13:29.073Z,18.05
2023-03-05T21:15:37.306Z,19.23
2023-03-05T21:17:45.319Z,17.98
2023-03-05T21:19:53.564Z,16.90
2023-03-05T21:22:04.291Z,17.17
2023-03-05T21:24:12.126Z,17.50
2023-03-05T21:26:20.054Z,16.45
2023-03-05T21:28:29.587Z,15.65
2023-03-05T21:30:39.669Z,16.10
2023-03-05T21:32:48.205Z,16.52
2023-03-05T21:34:56.102Z,17.85
2023-03-05T21:37:06.526Z,18.48
2023-03-05T21:39:14.274Z,16.92
2023-03-05T21:41:23.185Z,19.00
2023-03-05T21:43:33.105Z,19.08
2023-03-05T21:45:43.121Z,18.65
2023-03-05T21:47:52.803Z,20.02
2023-03-05T21:50:01.777Z,18.92
2023-03-05T21:52:14.126Z,21.00
2023-03-05T21:54:22.110Z,18.75
2023-03-05T21:56:31.150Z,19.13
2023-03-05T21:58:39.488Z,19.80
2023-03-05T22:00:47.324Z,20.27
2023-03-05T22:02:55.240Z,20.10
2023-03-05T22:05:03.219Z,21.38
2023-03-05T22:07:13.787Z,18.50
2023-03-05T22:09:21.702Z,18.17
2023-03-05T22:11:29.948Z,20.05
2023-03-05T22:13:38.829Z,19.55
2023-03-05T22:15:49.389Z,19.20
2023-03-05T22:17:57.228Z,19.60
2023-03-05T22:20:05.484Z,20.13
2023-03-05T22:22:15.998Z,18.35
2023-03-05T22:24:25.513Z,20.08
2023-03-05T22:26:37.642Z,18.33
2023-03-05T22:28:45.788Z,18.92
2023-03-05T22:30:53.800Z,18.95
2023-03-05T22:33:01.772Z,18.95
2023-03-05T22:35:14.217Z,18.17
2023-03-05T22:37:24.973Z,17.52
2023-03-05T22:39:32.765Z,19.00
2023-03-05T22:41:43.211Z,18.42
2023-03-05T22:43:52.634Z,18.17
2023-03-05T22:46:00.510Z,17.90
2023-03-05T22:48:10.072Z,18.85
2023-03-05T22:50:18.932Z,17.98
2023-03-05T22:52:29.591Z,19.45
2023-03-05T22:54:37.447Z,18.10
2023-03-05T22:56:45.349Z,17.40
2023-03-05T22:58:53.258Z,19.95
2023-03-05T23:01:01.048Z,19.75
2023-03-05T23:03:09.138Z,19.33
2023-03-05T23:05:17.265Z,18.73
2023-03-05T23:07:27.364Z,17.52
2023-03-05T23:09:37.760Z,19.15
2023-03-05T23:11:45.671Z,18.98
2023-03-05T23:14:00.700Z,18.00
2023-03-05T23:16:09.657Z,18.67
2023-03-05T23:18:17.647Z,19.13
2023-03-05T23:20:28.434Z,18.45
2023-03-05T23:22:37.973Z,18.65
2023-03-05T23:24:48.732Z,17.42
2023-03-05T23:26:56.927Z,17.60
2023-03-05T23:29:04.665Z,16.60
2023-03-05T23:31:12.402Z,17.52
2023-03-05T23:33:21.560Z,17.13
2023-03-05T23:35:31.901Z,17.30
2023-03-05T23:37:40.103Z,17.20
2023-03-05T23:39:50.684Z,16.38
2023-03-05T23:41:58.638Z,16.80
2023-03-05T23:44:06.682Z,16.67
2023-03-05T23:46:15.099Z,17.52
2023-03-05T23:48:23.380Z,17.90
2023-03-05T23:50:33.436Z,18.02
2023-03-05T23:52:41.473Z,16.75
2023-03-05T23:54:52.100Z,17.25
2023-03-05T23:56:59.938Z,17.67
2023-03-05T23:59:07.967Z,18.05
